UAE213 OMDB-KMIA
Flight info
| Callsign | UAE213 |
|---|---|
| Flight time | N/A |
| Altitude | 30000 |
| Route | DAVMO M318 GABKO N440 RADEB M317 ROTAL P574 KASOL A418 SYZ P550 VUVAG R660 BORES L333 DASIS UL746 ODERO L621 REVDA DCT CND DCT RIVOS DCT EDETA DCT ELROM DCT NARKA DCT AMRAX DCT ODNEM DCT ELMEK DCT VEXIL DCT KATCE DCT HMM L602 SPY DCT RAVLO Y70 OTBED L60 PENIL M144 BAGSO DCT LIMRI/M083F300 DCT 53N020W 53N030W 53N040W 52N050W DCT TUDEP/N0487F300 N522E ALLEX DCT FOXBO DCT RIFLE DCT HEADI Q97 KALDA DCT BGBRD Q101 SKARP Y313 HOAGG BNFSH3 |
| Aircraft | B77W/H-SDE1E2E3FGHIJ2J3J4J5M1RWXY/LB1D1 |
Departure
| Time | 2026-05-05 21:22 |
|---|---|
| Airport | Dubai International Airport (OMDB) |
Arrival
| Time | N/A |
|---|---|
| Airport | Miami International Airport (KMIA) |
| Time | Latitude | Longitude | Altitude | Speed | Heading |
|---|---|---|---|---|---|
| 2026-05-05 20:45 | 25.24579 | 55.36422 | 30 ft | 0 kts | 31° |
| 2026-05-05 21:09 | 25.24578 | 55.36421 | 30 ft | 1 kts | 31° |
| 2026-05-05 21:10 | 25.24565 | 55.36412 | 30 ft | 2 kts | 31° |
| 2026-05-05 21:10 | 25.24552 | 55.36404 | 30 ft | 2 kts | 31° |
| 2026-05-05 21:10 | 25.24539 | 55.36395 | 30 ft | 2 kts | 31° |
| 2026-05-05 21:10 | 25.24526 | 55.36386 | 30 ft | 2 kts | 31° |
| 2026-05-05 21:11 | 25.24513 | 55.36378 | 30 ft | 2 kts | 31° |
| 2026-05-05 21:11 | 25.24500 | 55.36369 | 30 ft | 2 kts | 35° |
| 2026-05-05 21:11 | 25.24488 | 55.36357 | 30 ft | 2 kts | 54° |
| 2026-05-05 21:11 | 25.24481 | 55.36342 | 30 ft | 2 kts | 70° |
| 2026-05-05 21:12 | 25.24477 | 55.36325 | 30 ft | 2 kts | 85° |
| 2026-05-05 21:12 | 25.24477 | 55.36308 | 30 ft | 2 kts | 101° |
| 2026-05-05 21:12 | 25.24481 | 55.36293 | 30 ft | 2 kts | 115° |
| 2026-05-05 21:12 | 25.24485 | 55.36284 | 29 ft | 0 kts | 121° |
| 2026-05-05 21:14 | 25.24475 | 55.36303 | 30 ft | 7 kts | 121° |
| 2026-05-05 21:15 | 25.24431 | 55.36384 | 30 ft | 14 kts | 121° |
| 2026-05-05 21:15 | 25.24388 | 55.36478 | 31 ft | 13 kts | 108° |
| 2026-05-05 21:15 | 25.24377 | 55.36572 | 34 ft | 10 kts | 86° |
| 2026-05-05 21:15 | 25.24396 | 55.36651 | 37 ft | 10 kts | 66° |
| 2026-05-05 21:16 | 25.24435 | 55.36719 | 38 ft | 10 kts | 51° |
| 2026-05-05 21:16 | 25.24506 | 55.36778 | 37 ft | 17 kts | 32° |
| 2026-05-05 21:16 | 25.24629 | 55.36862 | 37 ft | 19 kts | 32° |
| 2026-05-05 21:16 | 25.24742 | 55.36934 | 34 ft | 18 kts | 30° |
| 2026-05-05 21:17 | 25.24851 | 55.37007 | 30 ft | 18 kts | 31° |
| 2026-05-05 21:17 | 25.24966 | 55.37085 | 30 ft | 18 kts | 31° |
| 2026-05-05 21:17 | 25.25048 | 55.37143 | 29 ft | 10 kts | 48° |
| 2026-05-05 21:17 | 25.25051 | 55.37209 | 29 ft | 10 kts | 114° |
| 2026-05-05 21:18 | 25.24996 | 55.37316 | 30 ft | 15 kts | 121° |
| 2026-05-05 21:18 | 25.24934 | 55.37427 | 31 ft | 20 kts | 121° |
| 2026-05-05 21:18 | 25.24845 | 55.37589 | 32 ft | 26 kts | 121° |
| 2026-05-05 21:18 | 25.24756 | 55.37749 | 34 ft | 22 kts | 121° |
| 2026-05-05 21:19 | 25.24680 | 55.37886 | 36 ft | 21 kts | 121° |
| 2026-05-05 21:19 | 25.24599 | 55.38030 | 38 ft | 21 kts | 121° |
| 2026-05-05 21:19 | 25.24529 | 55.38158 | 40 ft | 16 kts | 121° |
| 2026-05-05 21:19 | 25.24499 | 55.38216 | 41 ft | 4 kts | 101° |
| 2026-05-05 21:20 | 25.24533 | 55.38267 | 41 ft | 13 kts | 33° |
| 2026-05-05 21:20 | 25.24605 | 55.38316 | 41 ft | 7 kts | 26° |
| 2026-05-05 21:20 | 25.24649 | 55.38303 | 40 ft | 6 kts | 309° |
| 2026-05-05 21:20 | 25.24681 | 55.38251 | 39 ft | 14 kts | 302° |
| 2026-05-05 21:21 | 25.24845 | 55.37958 | 35 ft | 77 kts | 301° |
| 2026-05-05 21:21 | 25.25240 | 55.37244 | 29 ft | 138 kts | 301° |
| 2026-05-05 21:21 | 25.25842 | 55.36159 | 27 ft | 191 kts | 301° |
| 2026-05-05 21:21 | 25.26579 | 55.34825 | 364 ft | 210 kts | 301° |
| 2026-05-05 21:22 | 25.27306 | 55.33434 | 1102 ft | 214 kts | 300° |
| 2026-05-05 21:22 | 25.28055 | 55.32012 | 1578 ft | 217 kts | 302° |
| 2026-05-05 21:22 | 25.28997 | 55.30633 | 1804 ft | 227 kts | 319° |
| 2026-05-05 21:22 | 25.30373 | 55.29742 | 2095 ft | 233 kts | 347° |
| 2026-05-05 21:23 | 25.32013 | 55.29547 | 2502 ft | 235 kts | 0° |
| 2026-05-05 21:23 | 25.33659 | 55.29565 | 2925 ft | 237 kts | 2° |
| 2026-05-05 21:23 | 25.35307 | 55.29607 | 3336 ft | 240 kts | 2° |
| 2026-05-05 21:23 | 25.36990 | 55.29649 | 3732 ft | 243 kts | 2° |
| 2026-05-05 21:24 | 25.38704 | 55.29691 | 4124 ft | 245 kts | 2° |
| 2026-05-05 21:24 | 25.40366 | 55.30007 | 4441 ft | 249 kts | 21° |
| 2026-05-05 21:24 | 25.42037 | 55.30740 | 4599 ft | 264 kts | 24° |
| 2026-05-05 21:24 | 25.43776 | 55.31556 | 4785 ft | 279 kts | 24° |
| 2026-05-05 21:25 | 25.45598 | 55.32406 | 5196 ft | 284 kts | 24° |
| 2026-05-05 21:25 | 25.47452 | 55.33268 | 5676 ft | 287 kts | 24° |
| 2026-05-05 21:25 | 25.49293 | 55.34125 | 6136 ft | 290 kts | 24° |
| 2026-05-05 21:25 | 25.51153 | 55.34989 | 6592 ft | 292 kts | 24° |
| 2026-05-05 21:26 | 25.53064 | 55.35878 | 7046 ft | 295 kts | 24° |
| 2026-05-05 21:26 | 25.54966 | 55.36764 | 7494 ft | 297 kts | 24° |
| 2026-05-05 21:26 | 25.56889 | 55.37660 | 7921 ft | 299 kts | 24° |
| 2026-05-05 21:26 | 25.58704 | 55.38781 | 8316 ft | 301 kts | 35° |
| 2026-05-05 21:27 | 25.60425 | 55.40112 | 8744 ft | 303 kts | 37° |
| 2026-05-05 21:27 | 25.62155 | 55.41481 | 9160 ft | 305 kts | 37° |
| 2026-05-05 21:27 | 25.63895 | 55.42848 | 9641 ft | 307 kts | 36° |
| 2026-05-05 21:27 | 25.65637 | 55.44212 | 10327 ft | 305 kts | 36° |
| 2026-05-05 21:28 | 25.67315 | 55.45653 | 10938 ft | 307 kts | 43° |
| 2026-05-05 21:28 | 25.68878 | 55.47277 | 11625 ft | 309 kts | 44° |
| 2026-05-05 21:28 | 25.70457 | 55.48937 | 11996 ft | 321 kts | 43° |
| 2026-05-05 21:28 | 25.72066 | 55.50628 | 12161 ft | 335 kts | 43° |
| 2026-05-05 21:29 | 25.73815 | 55.52463 | 12324 ft | 350 kts | 43° |
| 2026-05-05 21:29 | 25.75604 | 55.54340 | 12499 ft | 365 kts | 43° |
| 2026-05-05 21:29 | 25.77496 | 55.56326 | 12615 ft | 378 kts | 43° |
| 2026-05-05 21:29 | 25.79453 | 55.58381 | 12610 ft | 392 kts | 43° |
| 2026-05-05 21:30 | 25.81442 | 55.60471 | 12796 ft | 400 kts | 43° |
| 2026-05-05 21:30 | 25.83467 | 55.62599 | 13166 ft | 402 kts | 43° |
| 2026-05-05 21:30 | 25.85537 | 55.64703 | 13626 ft | 403 kts | 39° |
| 2026-05-05 21:30 | 25.87851 | 55.66499 | 14079 ft | 406 kts | 33° |
| 2026-05-05 21:31 | 25.90248 | 55.68192 | 14516 ft | 410 kts | 33° |
| 2026-05-05 21:31 | 25.92657 | 55.69888 | 14938 ft | 413 kts | 33° |
| 2026-05-05 21:31 | 25.95114 | 55.71619 | 15374 ft | 416 kts | 32° |
| 2026-05-05 21:31 | 25.97547 | 55.73337 | 15811 ft | 419 kts | 32° |
| 2026-05-05 21:32 | 26.00023 | 55.75087 | 16220 ft | 422 kts | 32° |
| 2026-05-05 21:32 | 26.02542 | 55.76843 | 16638 ft | 425 kts | 30° |
| 2026-05-05 21:32 | 26.05204 | 55.78238 | 17011 ft | 428 kts | 20° |
| 2026-05-05 21:32 | 26.08114 | 55.79137 | 17379 ft | 431 kts | 10° |
| 2026-05-05 21:33 | 26.11104 | 55.79467 | 17759 ft | 434 kts | 0° |
| 2026-05-05 21:33 | 26.14149 | 55.79227 | 18132 ft | 437 kts | 351° |
| 2026-05-05 21:33 | 26.17092 | 55.78434 | 18512 ft | 440 kts | 341° |
| 2026-05-05 21:33 | 26.19935 | 55.77070 | 18938 ft | 441 kts | 331° |
| 2026-05-05 21:34 | 26.22504 | 55.75211 | 19348 ft | 442 kts | 321° |
| 2026-05-05 21:34 | 26.24746 | 55.72920 | 19699 ft | 444 kts | 312° |
| 2026-05-05 21:34 | 26.26669 | 55.70187 | 20115 ft | 445 kts | 305° |
| 2026-05-05 21:34 | 26.28454 | 55.67364 | 20530 ft | 446 kts | 306° |
| 2026-05-05 21:35 | 26.30277 | 55.64571 | 20868 ft | 449 kts | 306° |
| 2026-05-05 21:35 | 26.32168 | 55.61752 | 21236 ft | 451 kts | 307° |
| 2026-05-05 21:35 | 26.34054 | 55.58998 | 21605 ft | 453 kts | 307° |
| 2026-05-05 21:35 | 26.35989 | 55.56212 | 21979 ft | 454 kts | 307° |
| 2026-05-05 21:36 | 26.37937 | 55.53435 | 22324 ft | 456 kts | 307° |
| 2026-05-05 21:36 | 26.39830 | 55.50764 | 22627 ft | 459 kts | 308° |
| 2026-05-05 21:36 | 26.41828 | 55.47972 | 22960 ft | 460 kts | 308° |
| 2026-05-05 21:36 | 26.43854 | 55.45150 | 23297 ft | 461 kts | 307° |
| 2026-05-05 21:37 | 26.45857 | 55.42366 | 23645 ft | 462 kts | 307° |
| 2026-05-05 21:37 | 26.47871 | 55.39570 | 23967 ft | 463 kts | 307° |
| 2026-05-05 21:37 | 26.49899 | 55.36755 | 24265 ft | 465 kts | 307° |
| 2026-05-05 21:37 | 26.51923 | 55.33947 | 24564 ft | 466 kts | 307° |
| 2026-05-05 21:38 | 26.53945 | 55.31141 | 24896 ft | 466 kts | 307° |
| 2026-05-05 21:38 | 26.56001 | 55.28284 | 25246 ft | 467 kts | 307° |
| 2026-05-05 21:38 | 26.58016 | 55.25483 | 25537 ft | 468 kts | 306° |
| 2026-05-05 21:38 | 26.60052 | 55.22652 | 25823 ft | 470 kts | 306° |
| 2026-05-05 21:39 | 26.62104 | 55.19797 | 26091 ft | 471 kts | 306° |
| 2026-05-05 21:39 | 26.64180 | 55.16909 | 26396 ft | 473 kts | 306° |
| 2026-05-05 21:39 | 26.66229 | 55.14055 | 26679 ft | 474 kts | 306° |
| 2026-05-05 21:39 | 26.68287 | 55.11187 | 27015 ft | 474 kts | 306° |
| 2026-05-05 21:40 | 26.70373 | 55.08279 | 27351 ft | 474 kts | 306° |
| 2026-05-05 21:40 | 26.72435 | 55.05403 | 27600 ft | 476 kts | 306° |
| 2026-05-05 21:40 | 26.74520 | 55.02492 | 27841 ft | 478 kts | 306° |
| 2026-05-05 21:40 | 26.76596 | 54.99593 | 28123 ft | 478 kts | 306° |
| 2026-05-05 21:41 | 26.78688 | 54.96669 | 28458 ft | 477 kts | 306° |
| 2026-05-05 21:41 | 26.80755 | 54.93771 | 28708 ft | 478 kts | 305° |
| 2026-05-05 21:41 | 26.82827 | 54.90855 | 28918 ft | 479 kts | 305° |
| 2026-05-05 21:41 | 26.84911 | 54.87922 | 29188 ft | 479 kts | 305° |
| 2026-05-05 21:42 | 26.86983 | 54.85003 | 29481 ft | 477 kts | 305° |
| 2026-05-05 21:42 | 26.89035 | 54.82112 | 29778 ft | 476 kts | 305° |
| 2026-05-05 21:42 | 26.93174 | 54.76272 | 29844 ft | 479 kts | 304° |
| 2026-05-05 21:43 | 26.97300 | 54.70444 | 29872 ft | 476 kts | 304° |